Time;durP1;ratioP1;P1;durP2;ratioP2;P2;SDS_P1;SDS_P2;PMS_P1;PMS_P2;Temp;Humidity;BMP_temperature;BMP_pressure;BME280_temperature;BME280_humidity;BME280_pressure;Samples;Min_cycle;Max_cycle;Signal;HPM_P1;HPM_P2
2021/09/13 00:02:13;;;;;;;9.15;5.90;;;;;;;11.52;77.81;94982.34;5077979;28;20032;-67
2021/09/13 00:04:40;;;;;;;10.52;5.45;;;;;;;11.52;78.82;94982.34;5087381;28;20493;-67
2021/09/13 00:07:07;;;;;;;9.05;6.13;;;;;;;11.40;78.41;94979.78;5089212;28;20409;-67
2021/09/13 00:09:34;;;;;;;13.23;6.05;;;;;;;11.42;78.53;94988.19;5088631;28;20056;-68
2021/09/13 00:12:01;;;;;;;10.63;6.00;;;;;;;11.40;78.51;94990.22;5072827;28;20048;-67
2021/09/13 00:14:28;;;;;;;9.30;5.88;;;;;;;11.38;78.83;94992.25;5068012;28;20109;-67
2021/09/13 00:16:56;;;;;;;8.35;5.00;;;;;;;11.36;78.65;94991.69;5074889;28;20056;-67
2021/09/13 00:19:24;;;;;;;11.27;5.88;;;;;;;11.32;78.47;94991.34;5073721;28;20039;-68
2021/09/13 00:21:52;;;;;;;10.73;5.40;;;;;;;11.31;78.93;94991.59;5077064;28;20043;-67
2021/09/13 00:24:19;;;;;;;9.25;5.53;;;;;;;11.25;79.19;94988.91;5088549;28;20051;-67
2021/09/13 00:26:48;;;;;;;11.30;6.20;;;;;;;11.23;78.54;94996.13;5086712;28;20036;-67
2021/09/13 00:29:16;;;;;;;8.30;5.65;;;;;;;11.19;78.03;94984.59;5077688;28;20082;-67
2021/09/13 00:31:45;;;;;;;9.52;6.32;;;;;;;11.11;78.83;94984.97;5065557;28;20060;-67
2021/09/13 00:34:13;;;;;;;10.57;6.05;;;;;;;11.01;78.67;94977.72;5068242;28;20055;-67
2021/09/13 00:36:40;;;;;;;11.05;6.18;;;;;;;10.99;78.96;94978.97;5068824;28;20041;-67
2021/09/13 00:39:07;;;;;;;9.18;6.03;;;;;;;11.01;79.14;94985.53;5088664;28;20040;-67
2021/09/13 00:41:34;;;;;;;14.60;5.53;;;;;;;10.94;79.38;94981.47;5072409;28;20036;-67
2021/09/13 00:44:01;;;;;;;11.88;5.28;;;;;;;10.95;79.18;94993.47;5078136;28;20063;-68
2021/09/13 00:46:28;;;;;;;11.07;5.78;;;;;;;10.89;79.21;94985.56;5070105;28;20115;-67
2021/09/13 00:48:55;;;;;;;9.35;5.50;;;;;;;10.82;79.19;94990.09;5068031;28;20040;-68
2021/09/13 00:51:22;;;;;;;11.85;6.05;;;;;;;10.83;79.77;94990.91;5068052;28;20039;-68
2021/09/13 00:53:49;;;;;;;10.73;5.57;;;;;;;10.78;79.71;94988.19;5067910;28;20510;-67
2021/09/13 00:56:16;;;;;;;27.77;8.18;;;;;;;10.81;79.25;94987.72;5080141;28;20044;-67
2021/09/13 00:58:44;;;;;;;16.63;6.75;;;;;;;10.82;78.97;94989.28;5087860;28;20046;-68
2021/09/13 01:01:11;;;;;;;13.80;5.45;;;;;;;10.86;78.99;94996.44;5052256;28;20056;-67
2021/09/13 01:03:38;;;;;;;10.57;6.13;;;;;;;10.97;78.54;94989.63;5048362;28;20040;-67
2021/09/13 01:06:06;;;;;;;13.23;6.35;;;;;;;11.00;78.62;94988.38;5067788;28;20044;-68
2021/09/13 01:08:33;;;;;;;8.40;5.63;;;;;;;10.93;78.85;94979.88;5067378;28;20044;-67
2021/09/13 01:11:01;;;;;;;9.88;5.45;;;;;;;11.02;78.01;94994.13;5081971;28;20493;-67
2021/09/13 01:13:27;;;;;;;9.65;5.65;;;;;;;11.02;78.23;94994.13;5054315;28;20056;-67
2021/09/13 01:15:54;;;;;;;11.63;5.50;;;;;;;11.01;78.33;94997.78;5072064;28;20039;-67
2021/09/13 01:18:21;;;;;;;9.30;6.20;;;;;;;10.93;78.07;94991.13;5081551;28;20036;-67
2021/09/13 01:20:48;;;;;;;10.55;5.60;;;;;;;11.00;78.06;95002.22;5069397;28;20110;-67
2021/09/13 01:23:30;;;;;;;8.25;5.50;;;;;;;10.94;78.52;94997.13;5051919;28;20107;-68
2021/09/13 01:26:12;;;;;;;12.35;6.18;;;;;;;10.80;78.75;94984.31;5058068;28;20067;-67
2021/09/13 01:28:39;;;;;;;8.13;4.88;;;;;;;10.78;79.32;94993.38;5055147;28;20052;-67
2021/09/13 01:31:09;;;;;;;8.85;5.93;;;;;;;10.78;79.51;94998.59;5066369;28;20048;-67
2021/09/13 01:33:42;;;;;;;8.80;6.28;;;;;;;10.74;79.50;95003.47;5047341;28;20045;-67
2021/09/13 01:36:13;;;;;;;11.57;6.05;;;;;;;10.68;79.78;94994.75;5066983;28;20044;-67
2021/09/13 01:38:40;;;;;;;10.15;5.82;;;;;;;10.67;79.72;94989.75;5068663;28;20051;-67
2021/09/13 01:41:09;;;;;;;10.68;7.00;;;;;;;10.69;80.04;95000.75;5066624;28;20051;-67
2021/09/13 01:43:38;;;;;;;11.27;7.00;;;;;;;10.69;80.82;95008.56;5067019;28;20047;-68
2021/09/13 01:46:05;;;;;;;9.20;5.63;;;;;;;10.59;81.11;94990.09;5051101;28;20514;-68
2021/09/13 01:48:34;;;;;;;11.15;6.20;;;;;;;10.64;81.04;95008.44;5060406;28;20043;-69
2021/09/13 01:51:00;;;;;;;9.02;6.25;;;;;;;10.57;81.30;94997.34;5057055;28;20037;-68
2021/09/13 01:53:28;;;;;;;9.70;6.20;;;;;;;10.61;81.66;95011.53;5051601;28;20053;-67
2021/09/13 01:55:56;;;;;;;8.73;5.97;;;;;;;10.58;81.79;95007.53;5060993;28;20565;-67
2021/09/13 01:58:23;;;;;;;12.52;6.70;;;;;;;10.57;82.28;95012.97;5070606;28;20417;-67
2021/09/13 02:00:50;;;;;;;11.18;5.80;;;;;;;10.50;83.49;95006.06;5059850;28;20056;-67
2021/09/13 02:03:18;;;;;;;15.30;7.03;;;;;;;10.35;84.56;95016.13;5048021;28;20059;-67
2021/09/13 02:05:49;;;;;;;10.55;5.88;;;;;;;10.30;84.11;95000.38;5062974;28;20055;-67
2021/09/13 02:08:18;;;;;;;12.23;6.65;;;;;;;10.35;83.85;95013.50;5068122;28;20044;-67
2021/09/13 02:10:45;;;;;;;8.25;5.47;;;;;;;10.39;83.26;95022.47;5071948;28;20048;-67
2021/09/13 02:13:13;;;;;;;10.77;5.93;;;;;;;10.37;83.46;95018.50;5048168;28;20036;-67
2021/09/13 02:15:40;;;;;;;9.40;6.40;;;;;;;10.37;82.87;95019.31;5047216;28;20044;-68
2021/09/13 02:18:07;;;;;;;8.55;6.00;;;;;;;10.34;82.97;95024.97;5054142;28;20037;-68
2021/09/13 02:20:40;;;;;;;14.13;8.23;;;;;;;10.31;82.34;95025.41;5057255;28;20058;-67
2021/09/13 02:23:07;;;;;;;8.85;5.47;;;;;;;10.21;82.27;95009.50;5051634;28;20044;-68
2021/09/13 02:25:34;;;;;;;10.85;6.50;;;;;;;10.23;82.13;95023.91;5062327;28;20044;-67
2021/09/13 02:28:01;;;;;;;12.73;7.18;;;;;;;10.21;81.65;95020.72;5065230;28;20044;-68
2021/09/13 02:30:28;;;;;;;11.75;7.88;;;;;;;10.13;81.75;95008.81;5055930;28;20040;-68
2021/09/13 02:32:55;;;;;;;10.35;6.95;;;;;;;10.20;82.09;95018.34;5062413;28;20040;-67
2021/09/13 02:35:24;;;;;;;13.75;6.95;;;;;;;10.07;82.94;95004.50;5063324;28;20395;-68
2021/09/13 02:37:51;;;;;;;9.68;6.50;;;;;;;10.18;82.87;95022.97;5075849;28;20479;-67
2021/09/13 02:40:18;;;;;;;9.88;6.47;;;;;;;10.09;82.92;95023.28;5065995;28;20044;-67
2021/09/13 02:42:45;;;;;;;12.57;7.05;;;;;;;10.07;82.61;95014.91;5049686;28;20029;-67
2021/09/13 02:45:12;;;;;;;12.57;7.07;;;;;;;10.13;83.24;95024.41;5058702;28;20529;-68
2021/09/13 02:47:39;;;;;;;11.70;7.07;;;;;;;10.09;82.97;95028.50;5047573;28;20098;-67
2021/09/13 02:50:07;;;;;;;12.75;7.55;;;;;;;10.02;83.24;95020.00;5066399;28;20771;-68
2021/09/13 02:52:35;;;;;;;9.77;6.85;;;;;;;10.02;82.78;95021.81;5075080;28;20434;-67
2021/09/13 02:55:04;;;;;;;11.40;5.97;;;;;;;9.97;83.25;95019.84;5069663;28;20047;-68
2021/09/13 02:57:31;;;;;;;10.68;6.30;;;;;;;9.98;83.23;95029.25;5069989;28;20106;-68
2021/09/13 02:59:58;;;;;;;10.82;6.70;;;;;;;9.96;83.39;95028.69;5069891;28;20599;-67
2021/09/13 03:02:25;;;;;;;9.93;6.63;;;;;;;9.94;83.27;95030.72;5070436;28;20047;-67
2021/09/13 03:04:53;;;;;;;11.52;6.32;;;;;;;9.87;83.83;95030.03;5050124;28;20573;-67
2021/09/13 03:07:19;;;;;;;12.45;7.47;;;;;;;9.84;83.79;95040.88;5051197;28;20044;-67
2021/09/13 03:09:46;;;;;;;15.90;8.25;;;;;;;9.82;84.26;95042.91;5067527;28;20043;-67
2021/09/13 03:12:13;;;;;;;15.70;7.22;;;;;;;9.85;84.49;95042.44;5053531;28;20438;-67
2021/09/13 03:14:44;;;;;;;16.77;7.50;;;;;;;9.79;84.61;95035.53;5063054;28;20411;-67
2021/09/13 03:17:12;;;;;;;20.52;9.50;;;;;;;9.73;84.84;95035.38;5054892;28;20048;-67
2021/09/13 03:19:40;;;;;;;18.90;8.43;;;;;;;9.74;84.91;95037.00;5049327;28;21617;-67
2021/09/13 03:22:08;;;;;;;20.17;9.05;;;;;;;9.69;85.15;95026.44;5065261;28;20036;-68
2021/09/13 03:24:35;;;;;;;16.92;7.65;;;;;;;9.69;85.42;95034.25;5076527;28;20556;-67
2021/09/13 03:27:03;;;;;;;17.10;8.55;;;;;;;9.67;84.86;95031.06;5063327;28;20044;-67
2021/09/13 03:29:32;;;;;;;16.52;7.22;;;;;;;9.72;84.95;95041.63;5060989;28;20706;-68
2021/09/13 03:32:00;;;;;;;15.23;8.68;;;;;;;9.66;85.01;95033.88;5054187;28;20097;-67
2021/09/13 03:34:27;;;;;;;13.77;7.60;;;;;;;9.57;85.13;95025.59;5050572;28;20411;-67
2021/09/13 03:36:58;;;;;;;12.88;8.07;;;;;;;9.64;85.51;95026.31;5049880;28;20040;-67
2021/09/13 03:39:26;;;;;;;18.08;8.45;;;;;;;9.72;86.38;95044.22;5049019;28;20781;-67
2021/09/13 03:41:53;;;;;;;15.52;8.05;;;;;;;9.71;86.48;95049.63;5048372;28;20394;-67
2021/09/13 03:44:22;;;;;;;13.75;7.88;;;;;;;9.55;86.30;95022.44;5067750;28;20032;-67
2021/09/13 03:46:50;;;;;;;16.40;7.65;;;;;;;9.70;85.80;95046.22;5051882;28;20049;-67
2021/09/13 03:49:28;;;;;;;12.52;8.13;;;;;;;9.66;85.74;95034.69;5049193;28;20431;-67
2021/09/13 03:51:55;;;;;;;14.80;8.35;;;;;;;9.65;86.00;95038.31;5061894;28;20056;-67
2021/09/13 03:54:23;;;;;;;14.95;7.78;;;;;;;9.64;85.91;95048.94;5046855;28;20056;-68
2021/09/13 03:56:49;;;;;;;17.45;9.90;;;;;;;9.63;86.49;95055.91;5061607;28;20080;-68
2021/09/13 03:59:19;;;;;;;17.52;7.93;;;;;;;9.65;86.13;95056.50;5046133;28;20502;-67
2021/09/13 04:01:48;;;;;;;14.38;8.55;;;;;;;9.63;86.25;95055.91;5046420;28;20085;-68
2021/09/13 04:04:21;;;;;;;13.70;7.95;;;;;;;9.58;86.36;95045.41;5062852;28;20045;-68
2021/09/13 04:06:52;;;;;;;9.82;6.80;;;;;;;9.64;86.34;95057.50;5061007;28;20048;-68
2021/09/13 04:12:23;;;;;;;13.18;8.25;;;;;;;9.54;86.98;95046.81;5066319;28;20047;-68
2021/09/13 04:15:14;;;;;;;13.45;7.88;;;;;;;9.58;87.21;95055.81;5049059;28;20412;-67
2021/09/13 04:18:04;;;;;;;12.80;7.57;;;;;;;9.67;86.55;95056.25;5052277;28;20395;-67
2021/09/13 04:20:50;;;;;;;15.80;7.78;;;;;;;9.71;86.80;95060.81;5058983;28;20075;-68
2021/09/13 04:23:32;;;;;;;22.55;8.75;;;;;;;9.73;87.52;95064.00;5052648;28;20069;-68
2021/09/13 04:26:30;;;;;;;18.42;9.65;;;;;;;9.75;87.04;95055.97;5063236;28;20060;-67
2021/09/13 04:29:28;;;;;;;12.63;7.95;;;;;;;9.72;87.38;95070.22;5045452;28;20038;-67
2021/09/13 04:32:21;;;;;;;19.08;7.78;;;;;;;9.80;87.44;95070.94;5045459;28;20037;-68
2021/09/13 04:35:20;;;;;;;17.52;9.20;;;;;;;9.80;87.87;95061.31;5024781;28;20538;-68
2021/09/13 04:38:06;;;;;;;17.05;8.93;;;;;;;9.92;87.31;95074.34;5061071;28;20055;-67
2021/09/13 04:40:51;;;;;;;16.58;8.57;;;;;;;9.75;91.30;95072.38;5063997;28;20056;-67
2021/09/13 04:43:50;;;;;;;20.83;10.07;;;;;;;9.85;90.33;95069.25;5024568;28;20080;-68
2021/09/13 04:46:28;;;;;;;20.33;8.45;;;;;;;10.00;90.07;95079.28;5056756;28;20045;-67
2021/09/13 04:49:13;;;;;;;20.45;8.52;;;;;;;9.94;90.55;95072.34;5047002;28;20588;-68
2021/09/13 04:52:15;;;;;;;13.57;8.27;;;;;;;10.00;90.26;95079.28;5047822;28;20041;-68
2021/09/13 04:54:50;;;;;;;14.98;8.27;;;;;;;10.07;89.53;95074.78;5063749;28;20048;-67
2021/09/13 04:57:17;;;;;;;15.18;8.65;;;;;;;10.19;88.34;95089.63;5047625;28;20047;-68
2021/09/13 04:59:44;;;;;;;13.07;8.00;;;;;;;10.23;87.75;95080.38;5044803;28;20041;-68
2021/09/13 05:02:11;;;;;;;12.98;7.38;;;;;;;10.31;88.09;95093.09;5044867;28;20045;-68
2021/09/13 05:04:40;;;;;;;16.77;8.30;;;;;;;10.37;87.78;95089.63;5050562;28;20045;-67
2021/09/13 05:07:09;;;;;;;15.55;7.65;;;;;;;10.42;87.85;95094.91;5044839;28;20128;-68
2021/09/13 05:09:36;;;;;;;17.45;8.13;;;;;;;10.40;87.47;95080.56;5046126;28;20067;-67
2021/09/13 05:12:05;;;;;;;14.70;7.90;;;;;;;10.48;87.93;95095.88;5044795;28;20041;-68
2021/09/13 05:14:32;;;;;;;16.33;8.70;;;;;;;10.44;88.17;95098.13;5044787;28;20095;-67
2021/09/13 05:16:59;;;;;;;19.85;9.35;;;;;;;10.51;87.87;95098.81;5049758;28;20063;-67
2021/09/13 05:19:28;;;;;;;14.77;7.75;;;;;;;10.61;88.04;95103.47;5059512;28;21956;-67
2021/09/13 05:21:55;;;;;;;15.63;8.48;;;;;;;10.61;87.68;95097.47;5055454;28;20040;-68
2021/09/13 05:24:23;;;;;;;15.63;9.88;;;;;;;10.61;87.57;95100.06;5059755;28;20040;-68
2021/09/13 05:26:55;;;;;;;19.63;10.25;;;;;;;10.62;88.00;95091.22;5045030;28;20076;-68
2021/09/13 05:29:22;;;;;;;14.75;8.85;;;;;;;10.76;87.66;95105.63;5054062;28;20483;-68
2021/09/13 05:31:49;;;;;;;16.30;9.30;;;;;;;10.87;88.10;95111.88;5051573;28;20063;-67
2021/09/13 05:34:16;;;;;;;16.92;9.55;;;;;;;10.89;88.25;95110.66;5052915;28;20040;-68
2021/09/13 05:36:43;;;;;;;14.68;9.50;;;;;;;10.86;88.03;95105.88;5044688;28;20068;-68
2021/09/13 05:39:11;;;;;;;17.90;10.15;;;;;;;10.94;88.81;95098.75;5049336;28;20505;-68
2021/09/13 05:41:58;;;;;;;15.95;10.32;;;;;;;11.12;88.67;95098.63;5053406;28;20051;-68
2021/09/13 05:44:31;;;;;;;17.10;10.15;;;;;;;11.27;88.45;95111.19;5043576;28;20045;-68
2021/09/13 05:47:00;;;;;;;19.58;10.73;;;;;;;11.34;88.73;95106.66;5040047;28;20052;-68
2021/09/13 05:49:28;;;;;;;20.08;9.32;;;;;;;11.51;89.44;95106.75;5060186;28;20094;-68
2021/09/13 05:51:54;;;;;;;15.13;9.82;;;;;;;11.66;89.99;95109.66;5046763;28;20072;-68
2021/09/13 05:54:44;;;;;;;13.43;9.20;;;;;;;11.79;89.83;95113.84;5047596;28;20136;-67
2021/09/13 05:57:11;;;;;;;11.65;8.70;;;;;;;11.81;89.78;95111.81;5050120;28;20056;-67
2021/09/13 05:59:38;;;;;;;14.20;8.60;;;;;;;11.95;89.56;95101.91;5050395;28;20175;-67
2021/09/13 06:02:10;;;;;;;14.25;8.00;;;;;;;12.14;88.63;95114.78;5052206;28;20557;-67
2021/09/13 06:04:46;;;;;;;12.13;7.97;;;;;;;12.20;88.26;95104.19;5044655;28;20475;-68
2021/09/13 06:07:17;;;;;;;14.00;7.72;;;;;;;12.26;86.55;95099.84;5056500;28;20056;-68
2021/09/13 06:09:44;;;;;;;13.45;8.18;;;;;;;12.45;86.20;95110.09;5026196;28;20427;-67
2021/09/13 06:12:14;;;;;;;11.40;8.40;;;;;;;12.50;84.52;95110.19;5042399;28;20029;-68
2021/09/13 06:15:00;;;;;;;14.23;8.73;;;;;;;12.66;83.17;95114.66;5042404;28;20045;-68
2021/09/13 06:17:31;;;;;;;12.27;8.30;;;;;;;12.82;82.19;95119.09;5047086;28;20491;-68
2021/09/13 06:19:59;;;;;;;17.40;8.30;;;;;;;12.91;80.32;95113.44;5054516;28;20048;-68
2021/09/13 06:22:25;;;;;;;15.45;7.70;;;;;;;13.09;77.55;95125.47;5043748;28;20043;-68
2021/09/13 06:24:56;;;;;;;12.23;7.05;;;;;;;13.20;77.90;95116.78;5044083;28;20137;-68
2021/09/13 06:27:23;;;;;;;13.38;6.88;;;;;;;13.31;75.66;95113.28;5042804;28;20053;-69
2021/09/13 06:29:50;;;;;;;11.27;7.45;;;;;;;13.50;75.10;95119.03;5052795;28;20053;-68
2021/09/13 06:32:18;;;;;;;12.75;6.88;;;;;;;13.53;74.04;95109.91;5046995;28;20033;-69
2021/09/13 06:34:46;;;;;;;13.80;7.57;;;;;;;13.67;74.85;95115.59;5040236;28;20041;-68
2021/09/13 06:37:19;;;;;;;10.10;7.05;;;;;;;13.75;73.68;95109.91;5038745;28;20060;-69
2021/09/13 06:39:47;;;;;;;11.50;7.40;;;;;;;13.94;72.81;95115.66;5039539;28;20067;-68
2021/09/13 06:42:14;;;;;;;13.15;7.22;;;;;;;14.04;71.99;95120.19;5045274;28;20037;-68
2021/09/13 06:44:46;;;;;;;9.52;6.72;;;;;;;14.11;72.57;95112.94;5038898;28;20063;-67
2021/09/13 06:49:54;;;;;;;10.45;5.63;;;;;;;14.38;69.92;95115.56;5068781;28;21138;-69
2021/09/13 06:52:21;;;;;;;11.50;6.95;;;;;;;14.59;68.11;95121.84;5046682;28;20041;-68
2021/09/13 06:54:47;;;;;;;11.40;6.55;;;;;;;14.65;68.07;95120.84;5046767;28;20103;-68
2021/09/13 06:57:14;;;;;;;12.57;6.88;;;;;;;14.66;68.21;95122.44;5055956;28;20037;-68
2021/09/13 06:59:41;;;;;;;10.98;6.22;;;;;;;14.82;68.39;95114.69;5068883;28;20045;-68
2021/09/13 07:02:08;;;;;;;10.32;6.88;;;;;;;14.98;66.21;95129.50;5070324;28;20105;-68
2021/09/13 07:04:35;;;;;;;12.98;6.75;;;;;;;15.07;66.73;95122.75;5056113;28;20123;-68
2021/09/13 07:07:02;;;;;;;12.23;7.18;;;;;;;15.26;65.19;95124.97;5075282;28;20131;-69
2021/09/13 07:09:29;;;;;;;10.75;6.47;;;;;;;15.37;65.58;95131.84;5069422;28;20044;-68
2021/09/13 07:11:56;;;;;;;10.45;7.18;;;;;;;15.40;63.54;95123.47;5059508;28;20064;-69
2021/09/13 07:14:24;;;;;;;11.65;7.03;;;;;;;15.48;63.09;95133.53;5068097;28;20040;-69
2021/09/13 07:16:51;;;;;;;11.48;7.32;;;;;;;15.54;63.89;95120.41;5060993;28;20097;-68
2021/09/13 07:19:18;;;;;;;15.50;8.02;;;;;;;15.74;61.18;95125.78;5066211;28;20049;-69
2021/09/13 07:21:45;;;;;;;14.15;7.57;;;;;;;15.71;60.50;95121.00;5076869;28;20048;-70
2021/09/13 07:24:11;;;;;;;12.02;7.07;;;;;;;15.89;61.71;95132.16;5071366;28;20121;-69
2021/09/13 07:26:38;;;;;;;11.13;6.80;;;;;;;15.95;61.93;95131.13;5074457;28;20055;-68
2021/09/13 07:29:07;;;;;;;15.40;7.43;;;;;;;16.12;60.45;95136.19;5046687;28;20057;-69
2021/09/13 07:31:35;;;;;;;14.13;8.90;;;;;;;16.25;60.47;95133.84;5069611;28;20055;-69
2021/09/13 07:34:02;;;;;;;13.98;7.38;;;;;;;16.33;59.94;95123.88;5081186;28;20382;-69
2021/09/13 07:36:28;;;;;;;12.57;8.30;;;;;;;16.38;60.17;95118.63;5065828;28;20721;-69
2021/09/13 07:38:57;;;;;;;11.82;7.97;;;;;;;16.52;60.33;95122.34;5075718;28;20044;-70
2021/09/13 07:41:23;;;;;;;13.02;8.10;;;;;;;16.66;59.21;95116.59;5086063;28;20055;-69
2021/09/13 07:43:51;;;;;;;12.20;8.25;;;;;;;16.82;59.05;95128.69;5089067;28;20044;-68
2021/09/13 07:46:18;;;;;;;12.93;6.65;;;;;;;16.86;59.92;95129.00;5080992;28;20109;-68
2021/09/13 07:48:45;;;;;;;14.10;8.63;;;;;;;16.94;59.74;95121.38;5066175;28;20040;-68
2021/09/13 07:51:11;;;;;;;14.88;7.43;;;;;;;17.13;59.75;95124.22;5081020;28;20123;-68
2021/09/13 07:53:38;;;;;;;13.18;7.35;;;;;;;17.36;58.66;95132.66;5060676;28;20036;-68
2021/09/13 07:56:05;;;;;;;17.55;7.65;;;;;;;17.47;57.67;95120.25;5075305;28;20036;-68
2021/09/13 07:58:32;;;;;;;12.38;7.63;;;;;;;17.68;57.15;95131.50;5068124;28;20056;-69
2021/09/13 08:00:59;;;;;;;13.10;7.07;;;;;;;17.89;58.84;95129.63;5070133;28;20037;-68
2021/09/13 08:03:26;;;;;;;14.15;6.68;;;;;;;18.21;57.05;95125.81;5074377;28;20505;-69
2021/09/13 08:05:53;;;;;;;15.80;7.50;;;;;;;18.38;54.28;95136.78;5066164;28;20044;-68
2021/09/13 08:08:20;;;;;;;12.32;6.85;;;;;;;18.48;54.31;95125.38;5074347;28;20052;-69
2021/09/13 08:10:47;;;;;;;12.75;8.15;;;;;;;18.59;54.23;95126.13;5064282;28;20523;-69
2021/09/13 08:13:14;;;;;;;10.73;6.85;;;;;;;18.82;53.59;95122.81;5068839;28;20076;-68
2021/09/13 08:15:42;;;;;;;12.63;7.97;;;;;;;19.03;51.55;95125.28;5071658;28;20060;-69
2021/09/13 08:18:09;;;;;;;11.40;7.72;;;;;;;19.24;51.96;95116.13;5072542;28;20064;-69
2021/09/13 08:20:39;;;;;;;20.58;8.50;;;;;;;19.37;51.22;95113.88;5073982;28;20108;-69
2021/09/13 08:23:07;;;;;;;13.52;8.68;;;;;;;19.50;51.54;95121.16;5072052;28;20037;-69
2021/09/13 08:25:34;;;;;;;22.08;9.25;;;;;;;19.73;50.32;95122.25;5078788;28;20044;-69
2021/09/13 08:28:17;;;;;;;10.25;6.35;;;;;;;19.89;47.97;95120.22;5067311;28;20083;-69
2021/09/13 08:30:44;;;;;;;12.63;7.18;;;;;;;20.08;48.67;95122.09;5065142;28;20047;-69
2021/09/13 08:33:12;;;;;;;13.65;7.50;;;;;;;20.29;48.36;95115.50;5056252;28;20106;-69
2021/09/13 08:35:39;;;;;;;11.52;6.95;;;;;;;20.47;48.37;95116.56;5066568;28;20497;-69
2021/09/13 08:38:06;;;;;;;10.40;6.88;;;;;;;20.71;50.22;95119.19;5063434;28;20059;-68
2021/09/13 08:40:33;;;;;;;9.80;7.20;;;;;;;20.91;47.04;95112.78;5068053;28;20128;-68
2021/09/13 08:43:03;;;;;;;12.63;7.40;;;;;;;21.04;46.29;95108.59;5082385;28;20040;-69
2021/09/13 08:45:54;;;;;;;10.10;6.93;;;;;;;21.15;47.30;95112.63;5044569;28;20488;-69
2021/09/13 08:48:28;;;;;;;17.90;8.15;;;;;;;21.31;45.54;95104.44;5039613;28;20111;-68
2021/09/13 08:54:01;;;;;;;15.82;8.45;;;;;;;21.67;45.66;95107.25;5043514;28;20170;-69
2021/09/13 08:56:33;;;;;;;11.50;6.78;;;;;;;21.94;43.85;95109.09;5049345;28;20050;-69
2021/09/13 08:59:03;;;;;;;13.13;7.72;;;;;;;22.26;44.68;95091.50;5040685;28;20410;-69
2021/09/13 09:01:31;;;;;;;9.10;6.05;;;;;;;22.56;43.76;95094.56;5043936;28;20100;-69
2021/09/13 09:03:58;;;;;;;11.70;7.10;;;;;;;22.84;41.11;95089.94;5029722;28;20049;-68
2021/09/13 09:06:29;;;;;;;15.60;7.38;;;;;;;23.09;40.28;95098.41;5042518;28;20432;-69
2021/09/13 09:09:09;;;;;;;13.27;7.60;;;;;;;23.34;39.87;95086.34;5047292;28;20049;-68
2021/09/13 09:12:02;;;;;;;10.18;6.57;;;;;;;23.59;38.75;95086.78;5048011;28;20044;-68
2021/09/13 09:14:47;;;;;;;13.35;7.45;;;;;;;23.89;39.21;95089.69;5049789;28;20436;-68
2021/09/13 09:17:28;;;;;;;12.48;7.13;;;;;;;24.32;37.46;95086.34;5042021;28;20056;-68
2021/09/13 09:20:06;;;;;;;12.68;8.27;;;;;;;24.54;36.01;95078.25;5042226;28;20522;-69
2021/09/13 09:22:40;;;;;;;10.40;7.05;;;;;;;24.82;36.05;95085.88;5042643;28;20090;-69
2021/09/13 09:25:23;;;;;;;11.80;6.50;;;;;;;25.06;35.83;95079.25;5042863;28;20041;-69
2021/09/13 09:27:57;;;;;;;10.43;6.88;;;;;;;25.33;33.59;95081.56;5050916;28;20057;-69
2021/09/13 09:30:45;;;;;;;11.68;7.88;;;;;;;25.29;34.98;95067.31;5031265;28;20041;-68
2021/09/13 09:33:18;;;;;;;15.88;7.78;;;;;;;25.54;33.91;95060.31;5037444;28;20055;-68
2021/09/13 09:35:52;;;;;;;10.10;7.50;;;;;;;25.70;34.91;95073.91;5046997;28;20049;-69
2021/09/13 09:38:37;;;;;;;11.15;7.68;;;;;;;26.05;34.29;95073.72;5047452;28;20459;-71
2021/09/13 09:41:17;;;;;;;8.45;6.45;;;;;;;26.23;34.03;95076.28;5045973;28;20519;-69
2021/09/13 09:44:01;;;;;;;14.07;7.95;;;;;;;26.48;32.66;95059.28;5047912;28;20041;-68
2021/09/13 09:46:44;;;;;;;9.52;6.78;;;;;;;26.80;32.33;95065.03;5058438;28;20041;-69
2021/09/13 09:49:12;;;;;;;10.38;7.32;;;;;;;26.42;31.38;95065.94;5071413;28;20055;-69
2021/09/13 09:51:50;;;;;;;9.43;6.50;;;;;;;26.57;31.34;95061.13;5067871;28;20093;-69
2021/09/13 09:54:23;;;;;;;10.43;6.07;;;;;;;26.62;31.43;95056.38;5066541;28;20063;-69
2021/09/13 09:56:58;;;;;;;8.00;5.90;;;;;;;26.70;30.68;95060.06;5068066;28;20048;-69
2021/09/13 09:59:34;;;;;;;9.32;6.15;;;;;;;27.02;30.75;95045.16;5073664;28;20043;-68
2021/09/13 10:02:21;;;;;;;7.53;6.60;;;;;;;27.78;30.37;95052.94;5051434;28;20048;-69
2021/09/13 10:04:52;;;;;;;9.38;6.25;;;;;;;28.28;28.79;95059.81;5069732;28;20503;-69
2021/09/13 10:07:20;;;;;;;9.68;5.32;;;;;;;28.44;28.45;95045.72;5060319;28;20074;-69
2021/09/13 10:09:47;;;;;;;8.73;5.50;;;;;;;28.87;28.65;95041.56;5063414;28;20048;-69
2021/09/13 10:12:14;;;;;;;10.80;7.28;;;;;;;29.04;27.96;95046.59;5061513;28;20494;-69
2021/09/13 10:14:42;;;;;;;10.07;5.82;;;;;;;28.90;28.22;95038.97;5074064;28;20040;-70
2021/09/13 10:17:09;;;;;;;8.98;6.20;;;;;;;28.21;30.40;95048.91;5069889;28;20036;-69
2021/09/13 10:19:48;;;;;;;7.95;5.22;;;;;;;28.76;28.11;95042.03;5059625;28;20063;-69
2021/09/13 10:22:15;;;;;;;9.15;5.55;;;;;;;28.93;27.84;95032.13;5077098;28;20047;-69
2021/09/13 10:24:46;;;;;;;6.13;4.95;;;;;;;29.44;26.04;95036.88;5066214;28;20045;-69
2021/09/13 10:27:16;;;;;;;6.47;4.70;;;;;;;29.74;25.66;95034.50;5083725;28;20513;-69
2021/09/13 10:29:43;;;;;;;6.70;4.65;;;;;;;30.15;25.77;95032.38;5085933;28;20050;-69
2021/09/13 10:32:23;;;;;;;6.07;4.72;;;;;;;30.19;26.22;95033.22;5077380;28;20044;-68
2021/09/13 10:34:51;;;;;;;6.03;4.25;;;;;;;30.41;25.68;95039.06;5073169;28;20119;-69
2021/09/13 10:37:20;;;;;;;7.60;6.15;;;;;;;30.70;25.10;95029.63;5073593;28;20041;-68
2021/09/13 10:40:25;;;;;;;8.73;5.38;;;;;;;31.21;24.15;95023.28;5070349;28;20055;-68
2021/09/13 10:42:57;;;;;;;5.05;3.85;;;;;;;31.42;26.40;95029.00;5017589;28;20135;-68
2021/09/13 10:45:27;;;;;;;6.35;5.00;;;;;;;31.78;25.01;95026.91;5083631;28;20048;-68
2021/09/13 10:47:54;;;;;;;6.93;4.32;;;;;;;31.92;24.59;95031.69;5063115;28;20056;-68
2021/09/13 10:50:47;;;;;;;6.20;4.78;;;;;;;32.34;23.42;95019.19;5062664;28;20045;-69
2021/09/13 10:53:17;;;;;;;5.63;4.00;;;;;;;32.32;24.88;95026.84;5060854;28;20045;-68
2021/09/13 10:55:52;;;;;;;5.13;3.85;;;;;;;32.45;24.47;95022.81;5057993;28;20045;-68
2021/09/13 10:58:34;;;;;;;6.97;4.05;;;;;;;32.74;23.25;95025.84;5060281;28;20036;-68
2021/09/13 11:01:06;;;;;;;6.68;4.43;;;;;;;31.58;22.79;95011.97;5058924;28;20063;-68
2021/09/13 11:03:36;;;;;;;5.30;4.18;;;;;;;31.50;23.26;95016.47;5060093;28;20036;-68
2021/09/13 11:06:25;;;;;;;6.00;4.53;;;;;;;32.09;20.99;95014.28;5058721;28;20060;-68
2021/09/13 11:09:01;;;;;;;5.07;3.97;;;;;;;32.18;21.58;95014.78;5063457;28;20036;-68
2021/09/13 11:11:43;;;;;;;5.30;3.80;;;;;;;31.97;21.53;95011.75;5074258;28;20098;-66
2021/09/13 11:14:20;;;;;;;5.35;4.40;;;;;;;31.37;22.84;95018.56;5077216;28;20044;-68
2021/09/13 11:16:53;;;;;;;5.13;3.88;;;;;;;32.06;22.00;95004.22;5067788;28;20593;-68
2021/09/13 11:19:21;;;;;;;8.27;4.37;;;;;;;32.90;21.44;94995.94;5077436;28;20048;-68
2021/09/13 11:22:00;;;;;;;4.22;3.63;;;;;;;32.94;22.33;95007.56;5075797;28;20576;-67
2021/09/13 11:24:30;;;;;;;5.28;4.20;;;;;;;32.09;21.84;95002.69;5079805;28;20032;-67
2021/09/13 11:27:13;;;;;;;5.13;4.15;;;;;;;32.74;23.84;95004.28;5083023;28;20071;-67
2021/09/13 11:29:43;;;;;;;5.82;3.92;;;;;;;33.24;21.82;95001.28;5080198;28;20502;-67
2021/09/13 11:32:17;;;;;;;4.45;3.83;;;;;;;33.68;22.52;94995.84;5079953;28;20040;-67
2021/09/13 11:34:52;;;;;;;4.75;3.25;;;;;;;33.59;21.05;94998.09;5076339;28;20067;-67
2021/09/13 11:37:23;;;;;;;4.88;3.47;;;;;;;33.16;22.05;94995.06;5077406;28;20036;-67
2021/09/13 11:40:11;;;;;;;3.65;2.50;;;;;;;32.88;21.50;94990.94;5072271;28;20123;-68
2021/09/13 11:42:39;;;;;;;3.50;2.42;;;;;;;32.85;23.16;94988.97;5086634;28;20044;-67
2021/09/13 11:45:12;;;;;;;3.15;2.38;;;;;;;33.06;22.22;94990.31;5074934;28;20473;-68
2021/09/13 11:48:06;;;;;;;3.67;2.80;;;;;;;32.88;20.66;94982.84;5065391;28;20036;-67
2021/09/13 11:50:35;;;;;;;3.10;2.30;;;;;;;33.49;20.47;94987.97;5077816;28;20033;-68
2021/09/13 11:53:12;;;;;;;4.07;2.70;;;;;;;33.85;20.99;94988.25;5055809;28;20067;-68
2021/09/13 11:55:39;;;;;;;3.63;2.60;;;;;;;34.28;20.65;94991.19;5073255;28;20414;-68
2021/09/13 11:58:11;;;;;;;3.50;2.28;;;;;;;34.54;19.40;94989.34;5069411;28;20036;-68